sensor_id;sensor_type;location;lat;lon;timestamp;P1;durP1;ratioP1;P2;durP2;ratioP2
42110;SDS011;27766;52.174;5.456;2023-01-23T00:01:23;16.40;;;9.48;;
42110;SDS011;27766;52.174;5.456;2023-01-23T00:03:54;15.82;;;9.38;;
42110;SDS011;27766;52.174;5.456;2023-01-23T00:06:22;16.52;;;9.82;;
42110;SDS011;27766;52.174;5.456;2023-01-23T00:08:50;13.40;;;10.02;;
42110;SDS011;27766;52.174;5.456;2023-01-23T00:11:18;12.00;;;8.82;;
42110;SDS011;27766;52.174;5.456;2023-01-23T00:13:47;16.48;;;9.77;;
42110;SDS011;27766;52.174;5.456;2023-01-23T00:16:20;18.40;;;10.13;;
42110;SDS011;27766;52.174;5.456;2023-01-23T00:18:49;15.13;;;10.18;;
42110;SDS011;27766;52.174;5.456;2023-01-23T00:21:17;17.67;;;9.43;;
42110;SDS011;27766;52.174;5.456;2023-01-23T00:23:46;15.38;;;9.18;;
42110;SDS011;27766;52.174;5.456;2023-01-23T00:26:19;13.50;;;9.23;;
42110;SDS011;27766;52.174;5.456;2023-01-23T00:28:48;14.85;;;9.32;;
42110;SDS011;27766;52.174;5.456;2023-01-23T00:31:17;15.90;;;9.23;;
42110;SDS011;27766;52.174;5.456;2023-01-23T00:33:46;22.17;;;9.60;;
42110;SDS011;27766;52.174;5.456;2023-01-23T00:36:14;15.90;;;9.07;;
42110;SDS011;27766;52.174;5.456;2023-01-23T00:38:41;14.93;;;10.70;;
42110;SDS011;27766;52.174;5.456;2023-01-23T00:41:08;13.73;;;9.70;;
42110;SDS011;27766;52.174;5.456;2023-01-23T00:43:36;14.65;;;9.18;;
42110;SDS011;27766;52.174;5.456;2023-01-23T00:46:04;12.30;;;9.55;;
42110;SDS011;27766;52.174;5.456;2023-01-23T00:48:33;12.38;;;8.93;;
42110;SDS011;27766;52.174;5.456;2023-01-23T00:51:00;19.10;;;9.68;;
42110;SDS011;27766;52.174;5.456;2023-01-23T00:53:27;17.35;;;9.38;;
42110;SDS011;27766;52.174;5.456;2023-01-23T00:55:54;18.20;;;9.38;;
42110;SDS011;27766;52.174;5.456;2023-01-23T00:58:21;16.40;;;9.15;;
42110;SDS011;27766;52.174;5.456;2023-01-23T01:00:49;12.27;;;9.23;;
42110;SDS011;27766;52.174;5.456;2023-01-23T01:03:16;14.00;;;9.60;;
42110;SDS011;27766;52.174;5.456;2023-01-23T01:05:43;16.80;;;10.50;;
42110;SDS011;27766;52.174;5.456;2023-01-23T01:08:10;15.85;;;9.68;;
42110;SDS011;27766;52.174;5.456;2023-01-23T01:10:40;14.10;;;9.93;;
42110;SDS011;27766;52.174;5.456;2023-01-23T01:13:08;16.90;;;10.10;;
42110;SDS011;27766;52.174;5.456;2023-01-23T01:15:39;17.45;;;10.23;;
42110;SDS011;27766;52.174;5.456;2023-01-23T01:18:06;15.75;;;9.95;;
42110;SDS011;27766;52.174;5.456;2023-01-23T01:20:33;20.77;;;10.70;;
42110;SDS011;27766;52.174;5.456;2023-01-23T01:23:00;14.18;;;9.45;;
42110;SDS011;27766;52.174;5.456;2023-01-23T01:25:29;14.40;;;9.95;;
42110;SDS011;27766;52.174;5.456;2023-01-23T01:27:56;17.48;;;10.38;;
42110;SDS011;27766;52.174;5.456;2023-01-23T01:30:23;19.65;;;9.73;;
42110;SDS011;27766;52.174;5.456;2023-01-23T01:32:53;15.95;;;9.73;;
42110;SDS011;27766;52.174;5.456;2023-01-23T01:35:21;19.33;;;10.02;;
42110;SDS011;27766;52.174;5.456;2023-01-23T01:37:49;20.05;;;11.43;;
42110;SDS011;27766;52.174;5.456;2023-01-23T01:40:22;18.55;;;10.35;;
42110;SDS011;27766;52.174;5.456;2023-01-23T01:42:55;23.65;;;11.43;;
42110;SDS011;27766;52.174;5.456;2023-01-23T01:48:31;29.52;;;10.77;;
42110;SDS011;27766;52.174;5.456;2023-01-23T01:51:03;19.20;;;11.13;;
42110;SDS011;27766;52.174;5.456;2023-01-23T01:53:40;15.88;;;10.23;;
42110;SDS011;27766;52.174;5.456;2023-01-23T01:56:09;14.77;;;10.15;;
42110;SDS011;27766;52.174;5.456;2023-01-23T01:58:39;18.98;;;10.85;;
42110;SDS011;27766;52.174;5.456;2023-01-23T02:01:10;18.65;;;12.05;;
42110;SDS011;27766;52.174;5.456;2023-01-23T02:03:37;20.83;;;11.52;;
42110;SDS011;27766;52.174;5.456;2023-01-23T02:06:05;25.98;;;12.30;;
42110;SDS011;27766;52.174;5.456;2023-01-23T02:08:43;20.05;;;10.93;;
42110;SDS011;27766;52.174;5.456;2023-01-23T02:11:30;17.13;;;10.60;;
42110;SDS011;27766;52.174;5.456;2023-01-23T02:13:57;24.70;;;11.15;;
42110;SDS011;27766;52.174;5.456;2023-01-23T02:16:28;15.75;;;11.05;;
42110;SDS011;27766;52.174;5.456;2023-01-23T02:19:00;18.00;;;11.60;;
42110;SDS011;27766;52.174;5.456;2023-01-23T02:21:34;17.48;;;10.93;;
42110;SDS011;27766;52.174;5.456;2023-01-23T02:24:11;21.50;;;10.90;;
42110;SDS011;27766;52.174;5.456;2023-01-23T02:26:49;18.45;;;11.48;;
42110;SDS011;27766;52.174;5.456;2023-01-23T02:29:16;17.33;;;12.27;;
42110;SDS011;27766;52.174;5.456;2023-01-23T02:31:45;18.55;;;10.35;;
42110;SDS011;27766;52.174;5.456;2023-01-23T02:34:15;15.63;;;10.43;;
42110;SDS011;27766;52.174;5.456;2023-01-23T02:36:44;21.52;;;11.60;;
42110;SDS011;27766;52.174;5.456;2023-01-23T02:39:15;14.65;;;10.60;;
42110;SDS011;27766;52.174;5.456;2023-01-23T02:41:44;17.60;;;12.10;;
42110;SDS011;27766;52.174;5.456;2023-01-23T02:44:18;15.27;;;11.02;;
42110;SDS011;27766;52.174;5.456;2023-01-23T02:46:54;23.45;;;11.85;;
42110;SDS011;27766;52.174;5.456;2023-01-23T02:49:22;23.65;;;11.57;;
42110;SDS011;27766;52.174;5.456;2023-01-23T02:51:51;19.90;;;11.65;;
42110;SDS011;27766;52.174;5.456;2023-01-23T02:54:19;16.60;;;12.20;;
42110;SDS011;27766;52.174;5.456;2023-01-23T02:56:48;20.20;;;12.02;;
42110;SDS011;27766;52.174;5.456;2023-01-23T02:59:15;26.27;;;11.10;;
42110;SDS011;27766;52.174;5.456;2023-01-23T03:02:01;19.75;;;11.35;;
42110;SDS011;27766;52.174;5.456;2023-01-23T03:04:30;20.73;;;11.23;;
42110;SDS011;27766;52.174;5.456;2023-01-23T03:06:57;21.70;;;12.38;;
42110;SDS011;27766;52.174;5.456;2023-01-23T03:09:25;21.73;;;11.10;;
42110;SDS011;27766;52.174;5.456;2023-01-23T03:11:52;20.85;;;12.13;;
42110;SDS011;27766;52.174;5.456;2023-01-23T03:14:21;16.50;;;11.00;;
42110;SDS011;27766;52.174;5.456;2023-01-23T03:16:49;15.43;;;11.77;;
42110;SDS011;27766;52.174;5.456;2023-01-23T03:19:20;14.88;;;11.13;;
42110;SDS011;27766;52.174;5.456;2023-01-23T03:21:49;18.88;;;11.25;;
42110;SDS011;27766;52.174;5.456;2023-01-23T03:24:17;16.42;;;10.88;;
42110;SDS011;27766;52.174;5.456;2023-01-23T03:26:46;20.75;;;11.88;;
42110;SDS011;27766;52.174;5.456;2023-01-23T03:29:21;18.85;;;10.73;;
42110;SDS011;27766;52.174;5.456;2023-01-23T03:32:10;27.17;;;11.15;;
42110;SDS011;27766;52.174;5.456;2023-01-23T03:34:38;25.70;;;11.68;;
42110;SDS011;27766;52.174;5.456;2023-01-23T03:37:07;17.52;;;11.40;;
42110;SDS011;27766;52.174;5.456;2023-01-23T03:39:36;20.48;;;13.65;;
42110;SDS011;27766;52.174;5.456;2023-01-23T03:42:21;22.67;;;12.45;;
42110;SDS011;27766;52.174;5.456;2023-01-23T03:44:50;19.73;;;11.88;;
42110;SDS011;27766;52.174;5.456;2023-01-23T03:47:18;17.48;;;11.77;;
42110;SDS011;27766;52.174;5.456;2023-01-23T03:49:46;19.90;;;11.15;;
42110;SDS011;27766;52.174;5.456;2023-01-23T03:52:13;20.80;;;12.55;;
42110;SDS011;27766;52.174;5.456;2023-01-23T03:54:40;18.90;;;11.82;;
42110;SDS011;27766;52.174;5.456;2023-01-23T03:57:08;19.23;;;12.05;;
42110;SDS011;27766;52.174;5.456;2023-01-23T03:59:35;22.30;;;13.52;;
42110;SDS011;27766;52.174;5.456;2023-01-23T04:02:03;25.70;;;13.90;;
42110;SDS011;27766;52.174;5.456;2023-01-23T04:04:33;20.33;;;11.93;;
42110;SDS011;27766;52.174;5.456;2023-01-23T04:07:01;16.13;;;11.90;;
42110;SDS011;27766;52.174;5.456;2023-01-23T04:09:29;28.50;;;12.70;;
42110;SDS011;27766;52.174;5.456;2023-01-23T04:11:57;24.80;;;12.43;;
42110;SDS011;27766;52.174;5.456;2023-01-23T04:14:25;16.83;;;12.93;;
42110;SDS011;27766;52.174;5.456;2023-01-23T04:16:53;23.10;;;11.30;;
42110;SDS011;27766;52.174;5.456;2023-01-23T04:19:20;20.48;;;12.95;;
42110;SDS011;27766;52.174;5.456;2023-01-23T04:21:48;19.88;;;12.77;;
42110;SDS011;27766;52.174;5.456;2023-01-23T04:24:16;20.83;;;12.38;;
42110;SDS011;27766;52.174;5.456;2023-01-23T04:26:43;17.27;;;12.52;;
42110;SDS011;27766;52.174;5.456;2023-01-23T04:29:11;22.23;;;11.93;;
42110;SDS011;27766;52.174;5.456;2023-01-23T04:31:38;26.85;;;12.65;;
42110;SDS011;27766;52.174;5.456;2023-01-23T04:34:06;21.58;;;12.15;;
42110;SDS011;27766;52.174;5.456;2023-01-23T04:36:33;16.88;;;12.25;;
42110;SDS011;27766;52.174;5.456;2023-01-23T04:39:00;24.70;;;12.90;;
42110;SDS011;27766;52.174;5.456;2023-01-23T04:41:31;22.85;;;12.20;;
42110;SDS011;27766;52.174;5.456;2023-01-23T04:43:59;25.80;;;13.38;;
42110;SDS011;27766;52.174;5.456;2023-01-23T04:46:46;21.92;;;12.95;;
42110;SDS011;27766;52.174;5.456;2023-01-23T04:49:19;20.95;;;12.30;;
42110;SDS011;27766;52.174;5.456;2023-01-23T04:51:48;20.15;;;13.20;;
42110;SDS011;27766;52.174;5.456;2023-01-23T04:54:16;20.95;;;12.98;;
42110;SDS011;27766;52.174;5.456;2023-01-23T04:56:43;19.98;;;12.55;;
42110;SDS011;27766;52.174;5.456;2023-01-23T04:59:11;20.30;;;11.85;;
42110;SDS011;27766;52.174;5.456;2023-01-23T05:01:39;19.48;;;13.07;;
42110;SDS011;27766;52.174;5.456;2023-01-23T05:04:06;23.05;;;11.93;;
42110;SDS011;27766;52.174;5.456;2023-01-23T05:06:33;17.90;;;12.40;;
42110;SDS011;27766;52.174;5.456;2023-01-23T05:09:00;18.63;;;12.48;;
42110;SDS011;27766;52.174;5.456;2023-01-23T05:11:28;16.70;;;12.70;;
42110;SDS011;27766;52.174;5.456;2023-01-23T05:13:56;25.15;;;13.25;;
42110;SDS011;27766;52.174;5.456;2023-01-23T05:16:23;21.48;;;13.00;;
42110;SDS011;27766;52.174;5.456;2023-01-23T05:18:50;20.42;;;12.98;;
42110;SDS011;27766;52.174;5.456;2023-01-23T05:21:17;17.98;;;13.88;;
42110;SDS011;27766;52.174;5.456;2023-01-23T05:23:45;22.00;;;12.88;;
42110;SDS011;27766;52.174;5.456;2023-01-23T05:26:12;31.05;;;13.77;;
42110;SDS011;27766;52.174;5.456;2023-01-23T05:28:39;19.30;;;12.35;;
42110;SDS011;27766;52.174;5.456;2023-01-23T05:31:06;23.08;;;12.38;;
42110;SDS011;27766;52.174;5.456;2023-01-23T05:33:34;26.15;;;12.52;;
42110;SDS011;27766;52.174;5.456;2023-01-23T05:36:01;19.00;;;13.00;;
42110;SDS011;27766;52.174;5.456;2023-01-23T05:38:28;31.88;;;13.02;;
42110;SDS011;27766;52.174;5.456;2023-01-23T05:40:56;23.85;;;12.90;;
42110;SDS011;27766;52.174;5.456;2023-01-23T05:43:23;22.60;;;12.27;;
42110;SDS011;27766;52.174;5.456;2023-01-23T05:45:51;21.15;;;12.82;;
42110;SDS011;27766;52.174;5.456;2023-01-23T05:48:18;26.42;;;13.63;;
42110;SDS011;27766;52.174;5.456;2023-01-23T05:50:45;21.42;;;12.77;;
42110;SDS011;27766;52.174;5.456;2023-01-23T05:53:12;20.38;;;12.88;;
42110;SDS011;27766;52.174;5.456;2023-01-23T05:55:42;19.65;;;13.25;;
42110;SDS011;27766;52.174;5.456;2023-01-23T05:58:09;22.40;;;13.07;;
42110;SDS011;27766;52.174;5.456;2023-01-23T06:00:36;17.85;;;12.75;;
42110;SDS011;27766;52.174;5.456;2023-01-23T06:03:03;19.35;;;12.93;;
42110;SDS011;27766;52.174;5.456;2023-01-23T06:05:32;20.75;;;12.82;;
42110;SDS011;27766;52.174;5.456;2023-01-23T06:07:59;19.75;;;12.73;;
42110;SDS011;27766;52.174;5.456;2023-01-23T06:10:26;21.77;;;13.23;;
42110;SDS011;27766;52.174;5.456;2023-01-23T06:12:53;21.42;;;12.90;;
42110;SDS011;27766;52.174;5.456;2023-01-23T06:15:20;21.92;;;12.63;;
42110;SDS011;27766;52.174;5.456;2023-01-23T06:17:48;17.35;;;12.65;;
42110;SDS011;27766;52.174;5.456;2023-01-23T06:20:15;22.75;;;13.57;;
42110;SDS011;27766;52.174;5.456;2023-01-23T06:22:42;18.80;;;13.30;;
42110;SDS011;27766;52.174;5.456;2023-01-23T06:25:10;19.73;;;14.20;;
42110;SDS011;27766;52.174;5.456;2023-01-23T06:27:37;23.20;;;12.85;;
42110;SDS011;27766;52.174;5.456;2023-01-23T06:30:04;14.90;;;12.07;;
42110;SDS011;27766;52.174;5.456;2023-01-23T06:32:32;21.65;;;13.32;;
42110;SDS011;27766;52.174;5.456;2023-01-23T06:34:59;18.27;;;13.27;;
42110;SDS011;27766;52.174;5.456;2023-01-23T06:37:26;18.65;;;13.90;;
42110;SDS011;27766;52.174;5.456;2023-01-23T06:39:53;21.17;;;14.13;;
42110;SDS011;27766;52.174;5.456;2023-01-23T06:42:20;21.27;;;14.00;;
42110;SDS011;27766;52.174;5.456;2023-01-23T06:44:47;26.40;;;15.18;;
42110;SDS011;27766;52.174;5.456;2023-01-23T06:47:15;20.45;;;13.80;;
42110;SDS011;27766;52.174;5.456;2023-01-23T06:49:44;22.35;;;14.45;;
42110;SDS011;27766;52.174;5.456;2023-01-23T06:52:11;20.45;;;13.98;;
42110;SDS011;27766;52.174;5.456;2023-01-23T06:54:38;21.63;;;13.10;;
42110;SDS011;27766;52.174;5.456;2023-01-23T06:57:06;20.48;;;12.82;;
42110;SDS011;27766;52.174;5.456;2023-01-23T06:59:33;22.73;;;13.63;;
42110;SDS011;27766;52.174;5.456;2023-01-23T07:02:00;18.95;;;13.73;;
42110;SDS011;27766;52.174;5.456;2023-01-23T07:04:27;21.02;;;13.80;;
42110;SDS011;27766;52.174;5.456;2023-01-23T07:06:54;20.50;;;13.43;;
42110;SDS011;27766;52.174;5.456;2023-01-23T07:09:24;21.55;;;13.98;;
42110;SDS011;27766;52.174;5.456;2023-01-23T07:11:54;17.50;;;12.45;;
42110;SDS011;27766;52.174;5.456;2023-01-23T07:14:21;22.08;;;14.23;;
42110;SDS011;27766;52.174;5.456;2023-01-23T07:16:49;21.83;;;14.50;;
42110;SDS011;27766;52.174;5.456;2023-01-23T07:19:16;22.25;;;14.00;;
42110;SDS011;27766;52.174;5.456;2023-01-23T07:21:43;20.65;;;13.88;;
42110;SDS011;27766;52.174;5.456;2023-01-23T07:24:10;23.38;;;15.00;;
42110;SDS011;27766;52.174;5.456;2023-01-23T07:26:37;28.70;;;15.00;;
42110;SDS011;27766;52.174;5.456;2023-01-23T07:29:05;22.92;;;14.05;;
42110;SDS011;27766;52.174;5.456;2023-01-23T07:31:34;23.05;;;13.40;;
42110;SDS011;27766;52.174;5.456;2023-01-23T07:34:02;26.15;;;15.63;;
42110;SDS011;27766;52.174;5.456;2023-01-23T07:36:29;24.63;;;14.45;;
42110;SDS011;27766;52.174;5.456;2023-01-23T07:38:56;24.73;;;15.73;;
42110;SDS011;27766;52.174;5.456;2023-01-23T07:41:25;26.52;;;14.55;;
42110;SDS011;27766;52.174;5.456;2023-01-23T07:43:52;27.90;;;14.95;;
42110;SDS011;27766;52.174;5.456;2023-01-23T07:46:19;25.10;;;15.25;;
42110;SDS011;27766;52.174;5.456;2023-01-23T07:48:46;30.55;;;16.48;;
42110;SDS011;27766;52.174;5.456;2023-01-23T07:51:13;25.25;;;14.48;;
42110;SDS011;27766;52.174;5.456;2023-01-23T07:53:41;25.40;;;16.63;;
42110;SDS011;27766;52.174;5.456;2023-01-23T07:56:08;26.25;;;14.93;;
42110;SDS011;27766;52.174;5.456;2023-01-23T07:58:35;24.85;;;15.20;;
42110;SDS011;27766;52.174;5.456;2023-01-23T08:01:06;20.42;;;14.18;;
42110;SDS011;27766;52.174;5.456;2023-01-23T08:03:34;22.00;;;14.65;;
42110;SDS011;27766;52.174;5.456;2023-01-23T08:06:02;25.02;;;15.57;;
42110;SDS011;27766;52.174;5.456;2023-01-23T08:08:29;23.23;;;15.82;;
42110;SDS011;27766;52.174;5.456;2023-01-23T08:10:56;22.15;;;15.27;;
42110;SDS011;27766;52.174;5.456;2023-01-23T08:13:23;29.90;;;16.30;;
42110;SDS011;27766;52.174;5.456;2023-01-23T08:15:53;31.13;;;16.42;;
42110;SDS011;27766;52.174;5.456;2023-01-23T08:18:24;20.95;;;15.10;;
42110;SDS011;27766;52.174;5.456;2023-01-23T08:20:52;21.23;;;15.32;;
42110;SDS011;27766;52.174;5.456;2023-01-23T08:23:23;24.23;;;15.93;;
42110;SDS011;27766;52.174;5.456;2023-01-23T08:25:52;28.17;;;16.20;;
42110;SDS011;27766;52.174;5.456;2023-01-23T08:28:24;21.60;;;15.00;;
42110;SDS011;27766;52.174;5.456;2023-01-23T08:30:52;23.77;;;15.27;;
42110;SDS011;27766;52.174;5.456;2023-01-23T08:33:20;25.10;;;16.23;;
42110;SDS011;27766;52.174;5.456;2023-01-23T08:35:48;23.85;;;14.90;;
42110;SDS011;27766;52.174;5.456;2023-01-23T08:38:19;21.65;;;16.10;;
42110;SDS011;27766;52.174;5.456;2023-01-23T08:40:47;23.42;;;16.15;;
42110;SDS011;27766;52.174;5.456;2023-01-23T08:43:18;26.80;;;16.75;;
42110;SDS011;27766;52.174;5.456;2023-01-23T08:45:47;23.90;;;17.63;;
42110;SDS011;27766;52.174;5.456;2023-01-23T08:48:16;26.73;;;16.48;;
42110;SDS011;27766;52.174;5.456;2023-01-23T08:50:44;23.20;;;14.90;;
42110;SDS011;27766;52.174;5.456;2023-01-23T08:53:11;25.08;;;16.85;;
42110;SDS011;27766;52.174;5.456;2023-01-23T08:55:39;24.60;;;16.25;;
42110;SDS011;27766;52.174;5.456;2023-01-23T08:58:08;24.77;;;16.20;;
42110;SDS011;27766;52.174;5.456;2023-01-23T09:00:39;23.67;;;16.17;;
42110;SDS011;27766;52.174;5.456;2023-01-23T09:03:08;25.55;;;17.15;;
42110;SDS011;27766;52.174;5.456;2023-01-23T09:05:37;23.48;;;16.65;;
42110;SDS011;27766;52.174;5.456;2023-01-23T09:08:04;22.85;;;16.60;;
42110;SDS011;27766;52.174;5.456;2023-01-23T09:10:31;33.75;;;18.55;;
42110;SDS011;27766;52.174;5.456;2023-01-23T09:12:58;30.65;;;17.98;;
42110;SDS011;27766;52.174;5.456;2023-01-23T09:15:25;27.00;;;18.30;;
42110;SDS011;27766;52.174;5.456;2023-01-23T09:17:53;30.60;;;18.27;;
42110;SDS011;27766;52.174;5.456;2023-01-23T09:20:20;23.60;;;18.00;;
42110;SDS011;27766;52.174;5.456;2023-01-23T09:22:48;27.90;;;17.85;;
42110;SDS011;27766;52.174;5.456;2023-01-23T09:25:15;32.42;;;17.90;;
42110;SDS011;27766;52.174;5.456;2023-01-23T09:27:42;27.15;;;18.63;;
42110;SDS011;27766;52.174;5.456;2023-01-23T09:30:10;28.63;;;19.30;;
42110;SDS011;27766;52.174;5.456;2023-01-23T09:32:37;31.98;;;19.80;;
42110;SDS011;27766;52.174;5.456;2023-01-23T09:35:04;27.00;;;17.80;;
42110;SDS011;27766;52.174;5.456;2023-01-23T09:37:32;23.73;;;16.75;;
42110;SDS011;27766;52.174;5.456;2023-01-23T09:40:28;35.70;;;19.70;;
42110;SDS011;27766;52.174;5.456;2023-01-23T09:43:00;23.60;;;17.05;;
42110;SDS011;27766;52.174;5.456;2023-01-23T09:45:35;29.67;;;18.80;;
42110;SDS011;27766;52.174;5.456;2023-01-23T09:48:21;26.67;;;17.98;;
42110;SDS011;27766;52.174;5.456;2023-01-23T09:50:59;26.70;;;16.25;;
42110;SDS011;27766;52.174;5.456;2023-01-23T09:53:35;28.70;;;16.50;;
42110;SDS011;27766;52.174;5.456;2023-01-23T09:56:08;23.08;;;16.00;;
42110;SDS011;27766;52.174;5.456;2023-01-23T09:58:57;25.80;;;16.02;;
42110;SDS011;27766;52.174;5.456;2023-01-23T10:01:39;22.02;;;16.50;;
42110;SDS011;27766;52.174;5.456;2023-01-23T10:04:08;25.33;;;15.23;;
42110;SDS011;27766;52.174;5.456;2023-01-23T10:07:23;24.27;;;15.70;;
42110;SDS011;27766;52.174;5.456;2023-01-23T10:09:38;20.92;;;14.95;;
42110;SDS011;27766;52.174;5.456;2023-01-23T10:20:45;21.15;;;13.98;;
42110;SDS011;27766;52.174;5.456;2023-01-23T10:26:08;20.25;;;14.15;;
42110;SDS011;27766;52.174;5.456;2023-01-23T10:28:44;25.58;;;14.50;;
42110;SDS011;27766;52.174;5.456;2023-01-23T10:31:22;28.83;;;15.00;;
42110;SDS011;27766;52.174;5.456;2023-01-23T10:34:01;22.25;;;13.35;;
42110;SDS011;27766;52.174;5.456;2023-01-23T10:36:38;26.88;;;13.80;;
42110;SDS011;27766;52.174;5.456;2023-01-23T10:39:28;20.58;;;13.65;;
42110;SDS011;27766;52.174;5.456;2023-01-23T10:42:07;20.40;;;13.43;;
42110;SDS011;27766;52.174;5.456;2023-01-23T10:47:10;17.33;;;15.05;;
42110;SDS011;27766;52.174;5.456;2023-01-23T10:49:43;21.48;;;13.57;;
42110;SDS011;27766;52.174;5.456;2023-01-23T10:55:02;17.15;;;12.98;;
42110;SDS011;27766;52.174;5.456;2023-01-23T10:57:35;19.80;;;13.02;;
42110;SDS011;27766;52.174;5.456;2023-01-23T11:00:33;15.45;;;11.82;;
42110;SDS011;27766;52.174;5.456;2023-01-23T11:03:23;22.58;;;13.40;;
42110;SDS011;27766;52.174;5.456;2023-01-23T11:06:07;18.52;;;12.65;;
42110;SDS011;27766;52.174;5.456;2023-01-23T11:08:37;15.35;;;12.18;;
42110;SDS011;27766;52.174;5.456;2023-01-23T11:13:41;16.63;;;13.13;;
42110;SDS011;27766;52.174;5.456;2023-01-23T11:16:14;20.90;;;14.10;;
42110;SDS011;27766;52.174;5.456;2023-01-23T11:18:53;21.90;;;13.75;;
42110;SDS011;27766;52.174;5.456;2023-01-23T11:21:34;18.25;;;12.98;;
42110;SDS011;27766;52.174;5.456;2023-01-23T11:24:15;17.13;;;13.13;;
42110;SDS011;27766;52.174;5.456;2023-01-23T11:27:04;19.30;;;13.10;;
42110;SDS011;27766;52.174;5.456;2023-01-23T11:32:25;20.65;;;12.45;;
42110;SDS011;27766;52.174;5.456;2023-01-23T11:34:59;18.80;;;12.07;;
42110;SDS011;27766;52.174;5.456;2023-01-23T11:37:39;22.15;;;12.45;;
42110;SDS011;27766;52.174;5.456;2023-01-23T11:40:15;24.25;;;14.10;;
42110;SDS011;27766;52.174;5.456;2023-01-23T11:42:45;19.35;;;12.57;;
42110;SDS011;27766;52.174;5.456;2023-01-23T11:50:42;18.40;;;13.02;;
42110;SDS011;27766;52.174;5.456;2023-01-23T11:53:57;16.15;;;11.68;;
42110;SDS011;27766;52.174;5.456;2023-01-23T12:07:48;16.15;;;11.57;;
42110;SDS011;27766;52.174;5.456;2023-01-23T12:13:23;18.35;;;11.32;;
42110;SDS011;27766;52.174;5.456;2023-01-23T12:21:41;13.77;;;10.60;;
42110;SDS011;27766;52.174;5.456;2023-01-23T12:27:03;13.15;;;9.57;;
42110;SDS011;27766;52.174;5.456;2023-01-23T12:30:01;16.10;;;10.15;;
42110;SDS011;27766;52.174;5.456;2023-01-23T12:32:46;13.05;;;9.25;;
42110;SDS011;27766;52.174;5.456;2023-01-23T12:35:26;14.07;;;10.30;;
42110;SDS011;27766;52.174;5.456;2023-01-23T12:38:09;14.65;;;9.32;;
42110;SDS011;27766;52.174;5.456;2023-01-23T12:40:57;16.58;;;9.82;;
42110;SDS011;27766;52.174;5.456;2023-01-23T12:44:04;14.98;;;9.48;;
42110;SDS011;27766;52.174;5.456;2023-01-23T12:49:20;12.80;;;9.15;;
42110;SDS011;27766;52.174;5.456;2023-01-23T12:51:57;8.63;;;7.75;;
42110;SDS011;27766;52.174;5.456;2023-01-23T12:57:17;12.98;;;8.13;;
42110;SDS011;27766;52.174;5.456;2023-01-23T13:03:20;14.38;;;9.02;;
42110;SDS011;27766;52.174;5.456;2023-01-23T13:09:21;10.68;;;7.40;;
42110;SDS011;27766;52.174;5.456;2023-01-23T13:11:59;10.18;;;8.00;;
42110;SDS011;27766;52.174;5.456;2023-01-23T13:17:36;9.68;;;7.13;;
42110;SDS011;27766;52.174;5.456;2023-01-23T13:23:18;10.75;;;7.32;;
42110;SDS011;27766;52.174;5.456;2023-01-23T13:28:55;8.77;;;7.00;;
42110;SDS011;27766;52.174;5.456;2023-01-23T13:34:00;9.77;;;7.70;;
42110;SDS011;27766;52.174;5.456;2023-01-23T13:36:41;7.75;;;6.85;;
42110;SDS011;27766;52.174;5.456;2023-01-23T13:41:44;9.43;;;6.88;;
42110;SDS011;27766;52.174;5.456;2023-01-23T13:44:22;9.25;;;7.00;;
42110;SDS011;27766;52.174;5.456;2023-01-23T13:50:18;11.73;;;8.52;;
42110;SDS011;27766;52.174;5.456;2023-01-23T13:53:16;12.55;;;9.10;;
42110;SDS011;27766;52.174;5.456;2023-01-23T13:56:20;12.52;;;8.68;;
42110;SDS011;27766;52.174;5.456;2023-01-23T13:59:22;14.65;;;9.50;;
42110;SDS011;27766;52.174;5.456;2023-01-23T14:02:18;10.90;;;8.82;;
42110;SDS011;27766;52.174;5.456;2023-01-23T14:05:27;15.65;;;10.20;;
42110;SDS011;27766;52.174;5.456;2023-01-23T14:08:16;15.43;;;9.85;;
42110;SDS011;27766;52.174;5.456;2023-01-23T14:10:58;17.52;;;10.85;;
42110;SDS011;27766;52.174;5.456;2023-01-23T14:13:46;16.35;;;10.85;;
42110;SDS011;27766;52.174;5.456;2023-01-23T14:16:30;13.45;;;10.43;;
42110;SDS011;27766;52.174;5.456;2023-01-23T14:19:24;14.73;;;10.32;;
42110;SDS011;27766;52.174;5.456;2023-01-23T14:22:09;14.85;;;10.65;;
42110;SDS011;27766;52.174;5.456;2023-01-23T14:24:51;16.67;;;11.27;;
42110;SDS011;27766;52.174;5.456;2023-01-23T14:30:18;14.30;;;9.80;;
42110;SDS011;27766;52.174;5.456;2023-01-23T14:32:45;18.90;;;11.10;;
42110;SDS011;27766;52.174;5.456;2023-01-23T14:35:16;14.65;;;10.10;;
42110;SDS011;27766;52.174;5.456;2023-01-23T14:37:44;14.23;;;10.07;;
42110;SDS011;27766;52.174;5.456;2023-01-23T14:40:14;12.95;;;9.88;;
42110;SDS011;27766;52.174;5.456;2023-01-23T14:42:55;14.40;;;8.60;;
42110;SDS011;27766;52.174;5.456;2023-01-23T14:45:33;10.98;;;8.02;;
42110;SDS011;27766;52.174;5.456;2023-01-23T14:48:04;10.52;;;8.27;;
42110;SDS011;27766;52.174;5.456;2023-01-23T14:50:39;13.15;;;8.52;;
42110;SDS011;27766;52.174;5.456;2023-01-23T14:53:14;8.90;;;6.43;;
42110;SDS011;27766;52.174;5.456;2023-01-23T14:55:45;8.95;;;6.60;;
42110;SDS011;27766;52.174;5.456;2023-01-23T14:58:24;12.20;;;7.90;;
42110;SDS011;27766;52.174;5.456;2023-01-23T15:00:53;9.65;;;7.95;;
42110;SDS011;27766;52.174;5.456;2023-01-23T15:03:39;9.98;;;7.82;;
42110;SDS011;27766;52.174;5.456;2023-01-23T15:06:27;11.52;;;7.82;;
42110;SDS011;27766;52.174;5.456;2023-01-23T15:09:06;12.10;;;8.57;;
42110;SDS011;27766;52.174;5.456;2023-01-23T15:11:40;11.82;;;8.27;;
42110;SDS011;27766;52.174;5.456;2023-01-23T15:14:24;12.48;;;8.77;;
42110;SDS011;27766;52.174;5.456;2023-01-23T15:17:04;11.30;;;8.40;;
42110;SDS011;27766;52.174;5.456;2023-01-23T15:19:34;12.10;;;8.52;;
42110;SDS011;27766;52.174;5.456;2023-01-23T15:22:04;12.07;;;8.68;;
42110;SDS011;27766;52.174;5.456;2023-01-23T15:24:52;10.98;;;8.38;;
42110;SDS011;27766;52.174;5.456;2023-01-23T15:27:32;13.27;;;7.78;;
42110;SDS011;27766;52.174;5.456;2023-01-23T15:33:04;11.65;;;7.68;;
42110;SDS011;27766;52.174;5.456;2023-01-23T15:35:33;10.38;;;8.35;;
42110;SDS011;27766;52.174;5.456;2023-01-23T15:38:01;11.00;;;8.02;;
42110;SDS011;27766;52.174;5.456;2023-01-23T15:40:32;8.85;;;7.95;;
42110;SDS011;27766;52.174;5.456;2023-01-23T15:43:04;12.57;;;8.60;;
42110;SDS011;27766;52.174;5.456;2023-01-23T15:45:37;11.60;;;8.25;;
42110;SDS011;27766;52.174;5.456;2023-01-23T15:48:04;11.43;;;8.52;;
42110;SDS011;27766;52.174;5.456;2023-01-23T15:50:31;12.95;;;8.95;;
42110;SDS011;27766;52.174;5.456;2023-01-23T15:52:59;15.15;;;8.90;;
42110;SDS011;27766;52.174;5.456;2023-01-23T15:55:26;13.27;;;8.73;;
42110;SDS011;27766;52.174;5.456;2023-01-23T15:57:54;14.55;;;8.77;;
42110;SDS011;27766;52.174;5.456;2023-01-23T16:00:22;12.38;;;9.50;;
42110;SDS011;27766;52.174;5.456;2023-01-23T16:02:52;13.20;;;9.85;;
42110;SDS011;27766;52.174;5.456;2023-01-23T16:05:27;13.90;;;9.50;;
42110;SDS011;27766;52.174;5.456;2023-01-23T16:07:56;14.63;;;10.43;;
42110;SDS011;27766;52.174;5.456;2023-01-23T16:10:37;15.18;;;10.60;;
42110;SDS011;27766;52.174;5.456;2023-01-23T16:13:08;14.43;;;11.70;;
42110;SDS011;27766;52.174;5.456;2023-01-23T16:15:38;16.20;;;11.88;;
42110;SDS011;27766;52.174;5.456;2023-01-23T16:18:05;14.70;;;11.75;;
42110;SDS011;27766;52.174;5.456;2023-01-23T16:20:34;15.15;;;10.45;;
42110;SDS011;27766;52.174;5.456;2023-01-23T16:23:17;16.23;;;11.57;;